CPX613 Details

Departure: Long Island Mac Arthur Airport (KISP)
Arrival: Washington Dulles International Airport (KIAD)
Route: BEADS V139 SARDI RBV HYPER7


Current Weather Information
KISP 190756Z AUTO 34004KT 10SM CLR 07/02 A3002 RMK AO2 SLP165 T00670017
KIAD 190752Z 00000KT 10SM CLR 03/01 A3009 RMK AO2 SLP188 T00280011